Fortune, Canada
Current Conditions -  °F | °C
As of 11:00 AM on Wednesday 26 Nov 2014 (Local Time) from LFVP Reporting Station
Clear Clear  
Wind Chill: 37°   Ceiling: Unl
Heat Index: 45°   Visibility: 6mi
Dew Point: 37°   Wind: 20mph
Humidity: 76%   Direction: 270°W
Pressure: 30.03"   Gusts: NA
Location:  47.07°N, 55.87°W
Report Text: LFVP 261400Z 27017KT CAVOK 07/03 Q1017 NOSIG
Loading
Personal Weather Stations






























Interactive Weather Map New forecast layout! Learn more

10-Day Weather Forecast

Advertisements
Track Severe Weather on mobile